sensor_id;sensor_type;location;lat;lon;timestamp;P1;durP1;ratioP1;P2;durP2;ratioP2
36799;SDS011;22752;51.960;5.886;2022-11-21T00:04:02;80.00;;;42.40;;
36799;SDS011;22752;51.960;5.886;2022-11-21T00:06:28;78.10;;;40.80;;
36799;SDS011;22752;51.960;5.886;2022-11-21T00:08:54;81.60;;;40.90;;
36799;SDS011;22752;51.960;5.886;2022-11-21T00:11:20;76.40;;;40.60;;
36799;SDS011;22752;51.960;5.886;2022-11-21T00:13:46;72.07;;;39.37;;
36799;SDS011;22752;51.960;5.886;2022-11-21T00:16:12;76.07;;;41.43;;
36799;SDS011;22752;51.960;5.886;2022-11-21T00:18:39;78.47;;;42.47;;
36799;SDS011;22752;51.960;5.886;2022-11-21T00:21:06;78.03;;;42.23;;
36799;SDS011;22752;51.960;5.886;2022-11-21T00:23:34;91.67;;;46.37;;
36799;SDS011;22752;51.960;5.886;2022-11-21T00:26:03;80.93;;;43.07;;
36799;SDS011;22752;51.960;5.886;2022-11-21T00:28:33;82.37;;;41.77;;
36799;SDS011;22752;51.960;5.886;2022-11-21T00:30:59;76.80;;;40.83;;
36799;SDS011;22752;51.960;5.886;2022-11-21T00:33:25;96.43;;;45.43;;
36799;SDS011;22752;51.960;5.886;2022-11-21T00:35:51;85.63;;;42.67;;
36799;SDS011;22752;51.960;5.886;2022-11-21T00:38:16;89.70;;;45.03;;
36799;SDS011;22752;51.960;5.886;2022-11-21T01:00:39;76.70;;;41.43;;
36799;SDS011;22752;51.960;5.886;2022-11-21T01:03:04;72.50;;;39.57;;
36799;SDS011;22752;51.960;5.886;2022-11-21T01:05:31;70.30;;;36.43;;
36799;SDS011;22752;51.960;5.886;2022-11-21T01:07:57;85.07;;;38.37;;
36799;SDS011;22752;51.960;5.886;2022-11-21T01:10:22;75.37;;;40.50;;
36799;SDS011;22752;51.960;5.886;2022-11-21T01:12:48;79.33;;;43.83;;
36799;SDS011;22752;51.960;5.886;2022-11-21T01:23:50;83.73;;;45.70;;
36799;SDS011;22752;51.960;5.886;2022-11-21T01:26:17;90.77;;;48.33;;
36799;SDS011;22752;51.960;5.886;2022-11-21T01:28:47;93.07;;;46.03;;
36799;SDS011;22752;51.960;5.886;2022-11-21T01:31:14;81.03;;;44.10;;
36799;SDS011;22752;51.960;5.886;2022-11-21T01:33:41;79.00;;;43.87;;
36799;SDS011;22752;51.960;5.886;2022-11-21T01:36:40;74.10;;;42.43;;
36799;SDS011;22752;51.960;5.886;2022-11-21T01:39:00;76.93;;;43.07;;
36799;SDS011;22752;51.960;5.886;2022-11-21T01:41:31;79.57;;;43.97;;
36799;SDS011;22752;51.960;5.886;2022-11-21T01:43:59;72.47;;;41.85;;
36799;SDS011;22752;51.960;5.886;2022-11-21T01:46:25;78.23;;;41.17;;
36799;SDS011;22752;51.960;5.886;2022-11-21T01:49:10;72.60;;;40.17;;
36799;SDS011;22752;51.960;5.886;2022-11-21T01:56:56;76.83;;;39.93;;
36799;SDS011;22752;51.960;5.886;2022-11-21T01:59:43;67.47;;;36.80;;
36799;SDS011;22752;51.960;5.886;2022-11-21T02:02:16;75.45;;;39.60;;
36799;SDS011;22752;51.960;5.886;2022-11-21T02:04:43;80.17;;;40.70;;
36799;SDS011;22752;51.960;5.886;2022-11-21T02:07:11;76.60;;;40.80;;
36799;SDS011;22752;51.960;5.886;2022-11-21T02:09:39;73.90;;;40.67;;
36799;SDS011;22752;51.960;5.886;2022-11-21T02:12:08;78.90;;;41.70;;
36799;SDS011;22752;51.960;5.886;2022-11-21T02:14:41;93.07;;;45.13;;
36799;SDS011;22752;51.960;5.886;2022-11-21T02:17:08;90.10;;;44.90;;
36799;SDS011;22752;51.960;5.886;2022-11-21T02:19:37;79.97;;;42.13;;
36799;SDS011;22752;51.960;5.886;2022-11-21T02:25:21;76.97;;;37.93;;
36799;SDS011;22752;51.960;5.886;2022-11-21T02:27:52;80.78;;;39.70;;
36799;SDS011;22752;51.960;5.886;2022-11-21T02:30:22;74.25;;;37.78;;
36799;SDS011;22752;51.960;5.886;2022-11-21T02:32:48;70.30;;;36.33;;
36799;SDS011;22752;51.960;5.886;2022-11-21T02:35:15;101.60;;;43.97;;
36799;SDS011;22752;51.960;5.886;2022-11-21T02:37:43;125.77;;;48.23;;
36799;SDS011;22752;51.960;5.886;2022-11-21T02:40:12;82.87;;;42.27;;
36799;SDS011;22752;51.960;5.886;2022-11-21T02:42:45;94.87;;;42.27;;
36799;SDS011;22752;51.960;5.886;2022-11-21T02:45:32;100.30;;;44.47;;
36799;SDS011;22752;51.960;5.886;2022-11-21T02:50:33;96.90;;;46.13;;
36799;SDS011;22752;51.960;5.886;2022-11-21T02:53:01;90.43;;;44.57;;
36799;SDS011;22752;51.960;5.886;2022-11-21T02:55:28;91.67;;;46.70;;
36799;SDS011;22752;51.960;5.886;2022-11-21T02:57:54;92.17;;;47.67;;
36799;SDS011;22752;51.960;5.886;2022-11-21T03:00:19;110.80;;;48.93;;
36799;SDS011;22752;51.960;5.886;2022-11-21T03:02:46;92.50;;;45.47;;
36799;SDS011;22752;51.960;5.886;2022-11-21T03:05:13;90.93;;;45.97;;
36799;SDS011;22752;51.960;5.886;2022-11-21T03:07:40;78.90;;;41.80;;
36799;SDS011;22752;51.960;5.886;2022-11-21T03:10:06;96.43;;;44.87;;
36799;SDS011;22752;51.960;5.886;2022-11-21T03:12:34;102.83;;;42.17;;
36799;SDS011;22752;51.960;5.886;2022-11-21T03:15:00;102.07;;;40.23;;
36799;SDS011;22752;51.960;5.886;2022-11-21T03:17:26;102.27;;;45.70;;
36799;SDS011;22752;51.960;5.886;2022-11-21T03:19:51;84.83;;;41.77;;
36799;SDS011;22752;51.960;5.886;2022-11-21T03:22:17;91.97;;;40.43;;
36799;SDS011;22752;51.960;5.886;2022-11-21T03:24:43;74.53;;;37.57;;
36799;SDS011;22752;51.960;5.886;2022-11-21T03:27:08;91.43;;;40.30;;
36799;SDS011;22752;51.960;5.886;2022-11-21T03:29:34;101.27;;;44.53;;
36799;SDS011;22752;51.960;5.886;2022-11-21T03:31:59;110.63;;;46.70;;
36799;SDS011;22752;51.960;5.886;2022-11-21T03:34:25;114.00;;;47.77;;
36799;SDS011;22752;51.960;5.886;2022-11-21T03:36:51;131.60;;;52.17;;
36799;SDS011;22752;51.960;5.886;2022-11-21T03:39:16;108.83;;;47.00;;
36799;SDS011;22752;51.960;5.886;2022-11-21T03:41:42;104.30;;;45.50;;
36799;SDS011;22752;51.960;5.886;2022-11-21T03:44:08;105.17;;;44.53;;
36799;SDS011;22752;51.960;5.886;2022-11-21T03:46:36;106.03;;;42.47;;
36799;SDS011;22752;51.960;5.886;2022-11-21T03:49:06;101.93;;;43.07;;
36799;SDS011;22752;51.960;5.886;2022-11-21T03:51:32;154.10;;;54.87;;
36799;SDS011;22752;51.960;5.886;2022-11-21T03:53:58;109.07;;;45.67;;
36799;SDS011;22752;51.960;5.886;2022-11-21T03:56:24;98.60;;;43.03;;
36799;SDS011;22752;51.960;5.886;2022-11-21T03:58:50;93.00;;;41.23;;
36799;SDS011;22752;51.960;5.886;2022-11-21T04:01:17;114.10;;;45.60;;
36799;SDS011;22752;51.960;5.886;2022-11-21T04:03:43;98.27;;;40.90;;
36799;SDS011;22752;51.960;5.886;2022-11-21T04:06:10;121.80;;;40.70;;
36799;SDS011;22752;51.960;5.886;2022-11-21T04:08:37;91.30;;;38.20;;
36799;SDS011;22752;51.960;5.886;2022-11-21T04:11:03;91.30;;;38.37;;
36799;SDS011;22752;51.960;5.886;2022-11-21T04:13:29;92.80;;;39.63;;
36799;SDS011;22752;51.960;5.886;2022-11-21T04:15:55;106.37;;;43.40;;
36799;SDS011;22752;51.960;5.886;2022-11-21T04:18:20;92.70;;;42.20;;
36799;SDS011;22752;51.960;5.886;2022-11-21T04:20:46;104.13;;;43.87;;
36799;SDS011;22752;51.960;5.886;2022-11-21T04:23:12;127.80;;;44.80;;
36799;SDS011;22752;51.960;5.886;2022-11-21T04:25:38;170.03;;;45.90;;
36799;SDS011;22752;51.960;5.886;2022-11-21T04:28:04;211.40;;;48.73;;
36799;SDS011;22752;51.960;5.886;2022-11-21T04:30:30;101.20;;;43.47;;
36799;SDS011;22752;51.960;5.886;2022-11-21T04:32:57;167.00;;;51.07;;
36799;SDS011;22752;51.960;5.886;2022-11-21T04:35:23;127.47;;;45.97;;
36799;SDS011;22752;51.960;5.886;2022-11-21T04:37:49;141.27;;;43.00;;
36799;SDS011;22752;51.960;5.886;2022-11-21T04:40:15;111.83;;;40.73;;
36799;SDS011;22752;51.960;5.886;2022-11-21T04:42:45;141.60;;;48.23;;
36799;SDS011;22752;51.960;5.886;2022-11-21T04:45:11;157.30;;;49.80;;
36799;SDS011;22752;51.960;5.886;2022-11-21T04:47:38;103.00;;;44.43;;
36799;SDS011;22752;51.960;5.886;2022-11-21T04:50:05;113.80;;;46.37;;
36799;SDS011;22752;51.960;5.886;2022-11-21T04:52:32;127.50;;;47.13;;
36799;SDS011;22752;51.960;5.886;2022-11-21T04:54:58;80.27;;;38.27;;
36799;SDS011;22752;51.960;5.886;2022-11-21T04:57:25;127.67;;;47.10;;
36799;SDS011;22752;51.960;5.886;2022-11-21T04:59:52;118.10;;;47.20;;
36799;SDS011;22752;51.960;5.886;2022-11-21T05:02:17;103.03;;;44.30;;
36799;SDS011;22752;51.960;5.886;2022-11-21T05:04:43;98.87;;;41.17;;
36799;SDS011;22752;51.960;5.886;2022-11-21T05:07:09;103.93;;;40.20;;
36799;SDS011;22752;51.960;5.886;2022-11-21T05:09:34;107.47;;;40.37;;
36799;SDS011;22752;51.960;5.886;2022-11-21T05:12:00;83.00;;;37.67;;
36799;SDS011;22752;51.960;5.886;2022-11-21T05:14:44;116.57;;;42.10;;
36799;SDS011;22752;51.960;5.886;2022-11-21T05:17:09;128.40;;;46.10;;
36799;SDS011;22752;51.960;5.886;2022-11-21T05:19:35;115.50;;;44.80;;
36799;SDS011;22752;51.960;5.886;2022-11-21T05:22:01;98.57;;;41.73;;
36799;SDS011;22752;51.960;5.886;2022-11-21T05:24:26;206.27;;;47.73;;
36799;SDS011;22752;51.960;5.886;2022-11-21T05:26:52;133.43;;;44.43;;
36799;SDS011;22752;51.960;5.886;2022-11-21T05:29:18;214.00;;;50.53;;
36799;SDS011;22752;51.960;5.886;2022-11-21T05:31:44;164.43;;;49.57;;
36799;SDS011;22752;51.960;5.886;2022-11-21T05:34:10;143.63;;;44.67;;
36799;SDS011;22752;51.960;5.886;2022-11-21T05:36:35;103.90;;;41.93;;
36799;SDS011;22752;51.960;5.886;2022-11-21T05:39:01;159.23;;;45.40;;
36799;SDS011;22752;51.960;5.886;2022-11-21T05:41:27;191.97;;;46.60;;
36799;SDS011;22752;51.960;5.886;2022-11-21T05:43:53;220.43;;;51.50;;
36799;SDS011;22752;51.960;5.886;2022-11-21T05:46:19;170.63;;;49.30;;
36799;SDS011;22752;51.960;5.886;2022-11-21T05:48:49;200.07;;;51.63;;
36799;SDS011;22752;51.960;5.886;2022-11-21T05:51:16;189.73;;;49.53;;
36799;SDS011;22752;51.960;5.886;2022-11-21T05:53:43;152.60;;;50.73;;
36799;SDS011;22752;51.960;5.886;2022-11-21T05:56:14;157.60;;;51.27;;
36799;SDS011;22752;51.960;5.886;2022-11-21T05:58:41;222.13;;;52.73;;
36799;SDS011;22752;51.960;5.886;2022-11-21T06:01:08;252.37;;;55.00;;
36799;SDS011;22752;51.960;5.886;2022-11-21T06:03:36;171.23;;;48.50;;
36799;SDS011;22752;51.960;5.886;2022-11-21T06:06:06;140.10;;;47.53;;
36799;SDS011;22752;51.960;5.886;2022-11-21T06:08:36;124.03;;;48.10;;
36799;SDS011;22752;51.960;5.886;2022-11-21T06:11:04;143.67;;;46.67;;
36799;SDS011;22752;51.960;5.886;2022-11-21T06:13:31;154.73;;;45.53;;
36799;SDS011;22752;51.960;5.886;2022-11-21T06:16:02;202.27;;;48.97;;
36799;SDS011;22752;51.960;5.886;2022-11-21T06:18:34;129.25;;;43.45;;
36799;SDS011;22752;51.960;5.886;2022-11-21T06:21:04;110.57;;;41.27;;
36799;SDS011;22752;51.960;5.886;2022-11-21T06:23:32;140.80;;;41.93;;
36799;SDS011;22752;51.960;5.886;2022-11-21T06:26:00;189.03;;;43.97;;
36799;SDS011;22752;51.960;5.886;2022-11-21T06:28:29;116.47;;;39.63;;
36799;SDS011;22752;51.960;5.886;2022-11-21T06:31:01;126.93;;;40.47;;
36799;SDS011;22752;51.960;5.886;2022-11-21T06:33:37;187.27;;;45.40;;
36799;SDS011;22752;51.960;5.886;2022-11-21T06:36:07;114.20;;;40.17;;
36799;SDS011;22752;51.960;5.886;2022-11-21T06:38:35;101.67;;;37.57;;
36799;SDS011;22752;51.960;5.886;2022-11-21T06:41:10;131.70;;;41.70;;
36799;SDS011;22752;51.960;5.886;2022-11-21T06:43:39;131.80;;;39.93;;
36799;SDS011;22752;51.960;5.886;2022-11-21T06:46:05;135.83;;;42.83;;
36799;SDS011;22752;51.960;5.886;2022-11-21T06:48:32;135.47;;;44.30;;
36799;SDS011;22752;51.960;5.886;2022-11-21T06:51:05;128.30;;;45.83;;
36799;SDS011;22752;51.960;5.886;2022-11-21T06:53:52;194.43;;;48.80;;
36799;SDS011;22752;51.960;5.886;2022-11-21T06:56:22;124.80;;;46.03;;
36799;SDS011;22752;51.960;5.886;2022-11-21T06:58:52;144.23;;;44.77;;
36799;SDS011;22752;51.960;5.886;2022-11-21T07:01:18;283.70;;;52.60;;
36799;SDS011;22752;51.960;5.886;2022-11-21T07:03:43;148.50;;;45.70;;
36799;SDS011;22752;51.960;5.886;2022-11-21T07:06:10;167.73;;;48.03;;
36799;SDS011;22752;51.960;5.886;2022-11-21T07:08:35;223.87;;;50.83;;
36799;SDS011;22752;51.960;5.886;2022-11-21T07:11:02;124.03;;;43.00;;
36799;SDS011;22752;51.960;5.886;2022-11-21T07:13:29;175.70;;;45.03;;
36799;SDS011;22752;51.960;5.886;2022-11-21T07:15:59;156.17;;;47.70;;
36799;SDS011;22752;51.960;5.886;2022-11-21T07:18:26;118.23;;;42.53;;
36799;SDS011;22752;51.960;5.886;2022-11-21T07:20:55;123.47;;;43.80;;
36799;SDS011;22752;51.960;5.886;2022-11-21T07:23:22;154.80;;;46.87;;
36799;SDS011;22752;51.960;5.886;2022-11-21T07:25:47;128.40;;;45.97;;
36799;SDS011;22752;51.960;5.886;2022-11-21T07:28:13;142.33;;;47.43;;
36799;SDS011;22752;51.960;5.886;2022-11-21T07:30:39;130.47;;;43.70;;
36799;SDS011;22752;51.960;5.886;2022-11-21T07:33:04;101.73;;;42.87;;
36799;SDS011;22752;51.960;5.886;2022-11-21T07:35:31;88.60;;;38.37;;
36799;SDS011;22752;51.960;5.886;2022-11-21T07:37:58;130.57;;;42.23;;
36799;SDS011;22752;51.960;5.886;2022-11-21T07:40:24;90.60;;;38.20;;
36799;SDS011;22752;51.960;5.886;2022-11-21T07:42:50;100.17;;;40.67;;
36799;SDS011;22752;51.960;5.886;2022-11-21T07:45:15;109.40;;;41.33;;
36799;SDS011;22752;51.960;5.886;2022-11-21T07:47:41;78.73;;;35.33;;
36799;SDS011;22752;51.960;5.886;2022-11-21T07:50:08;98.37;;;39.33;;
36799;SDS011;22752;51.960;5.886;2022-11-21T07:52:35;112.20;;;39.47;;
36799;SDS011;22752;51.960;5.886;2022-11-21T07:55:01;91.70;;;38.00;;
36799;SDS011;22752;51.960;5.886;2022-11-21T07:57:27;101.50;;;37.60;;
36799;SDS011;22752;51.960;5.886;2022-11-21T07:59:54;88.60;;;34.87;;
36799;SDS011;22752;51.960;5.886;2022-11-21T08:02:20;104.07;;;38.13;;
36799;SDS011;22752;51.960;5.886;2022-11-21T08:04:47;94.97;;;37.23;;
36799;SDS011;22752;51.960;5.886;2022-11-21T08:07:14;87.37;;;38.23;;
36799;SDS011;22752;51.960;5.886;2022-11-21T08:09:40;94.47;;;39.03;;
36799;SDS011;22752;51.960;5.886;2022-11-21T08:12:06;96.57;;;39.13;;
36799;SDS011;22752;51.960;5.886;2022-11-21T08:14:32;107.00;;;39.80;;
36799;SDS011;22752;51.960;5.886;2022-11-21T08:16:58;83.63;;;35.87;;
36799;SDS011;22752;51.960;5.886;2022-11-21T08:19:24;88.10;;;37.17;;
36799;SDS011;22752;51.960;5.886;2022-11-21T08:21:49;93.57;;;36.67;;
36799;SDS011;22752;51.960;5.886;2022-11-21T08:24:15;93.63;;;39.30;;
36799;SDS011;22752;51.960;5.886;2022-11-21T08:26:41;80.80;;;35.03;;
36799;SDS011;22752;51.960;5.886;2022-11-21T08:29:11;91.37;;;38.43;;
36799;SDS011;22752;51.960;5.886;2022-11-21T08:31:39;99.13;;;39.70;;
36799;SDS011;22752;51.960;5.886;2022-11-21T08:34:05;86.83;;;37.87;;
36799;SDS011;22752;51.960;5.886;2022-11-21T08:36:30;88.93;;;38.20;;
36799;SDS011;22752;51.960;5.886;2022-11-21T08:38:56;81.27;;;37.33;;
36799;SDS011;22752;51.960;5.886;2022-11-21T08:41:22;83.37;;;36.83;;
36799;SDS011;22752;51.960;5.886;2022-11-21T08:44:06;81.30;;;37.90;;
36799;SDS011;22752;51.960;5.886;2022-11-21T08:46:32;102.67;;;38.43;;
36799;SDS011;22752;51.960;5.886;2022-11-21T08:49:01;155.77;;;47.03;;
36799;SDS011;22752;51.960;5.886;2022-11-21T08:51:27;116.67;;;44.37;;
36799;SDS011;22752;51.960;5.886;2022-11-21T08:53:53;220.07;;;54.47;;
36799;SDS011;22752;51.960;5.886;2022-11-21T08:56:19;130.40;;;46.40;;
36799;SDS011;22752;51.960;5.886;2022-11-21T08:58:44;121.80;;;45.50;;
36799;SDS011;22752;51.960;5.886;2022-11-21T09:01:10;144.33;;;46.27;;
36799;SDS011;22752;51.960;5.886;2022-11-21T09:03:36;129.83;;;45.10;;
36799;SDS011;22752;51.960;5.886;2022-11-21T09:06:01;134.40;;;44.07;;
36799;SDS011;22752;51.960;5.886;2022-11-21T09:08:27;122.53;;;43.13;;
36799;SDS011;22752;51.960;5.886;2022-11-21T09:10:53;128.30;;;42.63;;
36799;SDS011;22752;51.960;5.886;2022-11-21T09:13:19;119.03;;;41.53;;
36799;SDS011;22752;51.960;5.886;2022-11-21T09:15:45;181.77;;;48.80;;
36799;SDS011;22752;51.960;5.886;2022-11-21T09:18:29;132.43;;;41.40;;
36799;SDS011;22752;51.960;5.886;2022-11-21T09:20:55;161.93;;;43.33;;
36799;SDS011;22752;51.960;5.886;2022-11-21T09:23:20;137.17;;;42.90;;
36799;SDS011;22752;51.960;5.886;2022-11-21T09:25:46;120.97;;;40.97;;
36799;SDS011;22752;51.960;5.886;2022-11-21T09:28:12;289.70;;;53.27;;
36799;SDS011;22752;51.960;5.886;2022-11-21T09:30:38;291.07;;;55.20;;
36799;SDS011;22752;51.960;5.886;2022-11-21T09:33:14;213.53;;;50.20;;
36799;SDS011;22752;51.960;5.886;2022-11-21T09:35:43;120.30;;;41.93;;
36799;SDS011;22752;51.960;5.886;2022-11-21T09:38:09;126.10;;;42.00;;
36799;SDS011;22752;51.960;5.886;2022-11-21T09:40:34;153.40;;;46.93;;
36799;SDS011;22752;51.960;5.886;2022-11-21T09:46:08;119.17;;;39.63;;
36799;SDS011;22752;51.960;5.886;2022-11-21T09:48:47;166.97;;;45.40;;
36799;SDS011;22752;51.960;5.886;2022-11-21T09:51:23;122.37;;;42.37;;
36799;SDS011;22752;51.960;5.886;2022-11-21T09:53:53;201.20;;;46.00;;
36799;SDS011;22752;51.960;5.886;2022-11-21T09:56:20;212.90;;;49.00;;
36799;SDS011;22752;51.960;5.886;2022-11-21T09:58:48;219.03;;;48.67;;
36799;SDS011;22752;51.960;5.886;2022-11-21T10:01:25;151.20;;;44.43;;
36799;SDS011;22752;51.960;5.886;2022-11-21T10:03:52;124.57;;;43.43;;
36799;SDS011;22752;51.960;5.886;2022-11-21T10:06:19;140.53;;;42.20;;
36799;SDS011;22752;51.960;5.886;2022-11-21T10:11:31;153.03;;;42.93;;
36799;SDS011;22752;51.960;5.886;2022-11-21T10:25:27;116.80;;;41.73;;
36799;SDS011;22752;51.960;5.886;2022-11-21T10:28:01;154.90;;;44.83;;
36799;SDS011;22752;51.960;5.886;2022-11-21T10:30:35;129.60;;;44.67;;
36799;SDS011;22752;51.960;5.886;2022-11-21T10:33:10;120.30;;;44.27;;
36799;SDS011;22752;51.960;5.886;2022-11-21T10:36:01;151.97;;;46.00;;
36799;SDS011;22752;51.960;5.886;2022-11-21T10:38:29;130.30;;;48.07;;
36799;SDS011;22752;51.960;5.886;2022-11-21T10:41:05;152.03;;;48.30;;
36799;SDS011;22752;51.960;5.886;2022-11-21T10:44:16;126.37;;;44.47;;
36799;SDS011;22752;51.960;5.886;2022-11-21T10:47:13;147.03;;;49.90;;
36799;SDS011;22752;51.960;5.886;2022-11-21T10:55:25;213.17;;;55.73;;
36799;SDS011;22752;51.960;5.886;2022-11-21T10:57:50;183.70;;;50.33;;
36799;SDS011;22752;51.960;5.886;2022-11-21T11:05:23;148.43;;;50.43;;
36799;SDS011;22752;51.960;5.886;2022-11-21T11:10:29;106.60;;;41.43;;
36799;SDS011;22752;51.960;5.886;2022-11-21T11:12:56;170.27;;;53.17;;
36799;SDS011;22752;51.960;5.886;2022-11-21T11:15:51;137.50;;;49.00;;
36799;SDS011;22752;51.960;5.886;2022-11-21T11:26:34;126.37;;;47.43;;
36799;SDS011;22752;51.960;5.886;2022-11-21T11:31:54;133.77;;;50.57;;
36799;SDS011;22752;51.960;5.886;2022-11-21T11:34:27;136.17;;;51.67;;
36799;SDS011;22752;51.960;5.886;2022-11-21T11:48:09;109.67;;;46.73;;
36799;SDS011;22752;51.960;5.886;2022-11-21T11:50:43;99.37;;;46.80;;
36799;SDS011;22752;51.960;5.886;2022-11-21T11:53:14;93.33;;;43.03;;
36799;SDS011;22752;51.960;5.886;2022-11-21T12:04:32;88.03;;;40.47;;
36799;SDS011;22752;51.960;5.886;2022-11-21T12:07:11;85.27;;;42.90;;
36799;SDS011;22752;51.960;5.886;2022-11-21T12:12:32;84.70;;;42.73;;
36799;SDS011;22752;51.960;5.886;2022-11-21T12:32:07;56.57;;;33.33;;
36799;SDS011;22752;51.960;5.886;2022-11-21T12:45:25;40.37;;;29.03;;
36799;SDS011;22752;51.960;5.886;2022-11-21T12:57:10;52.03;;;29.83;;
36799;SDS011;22752;51.960;5.886;2022-11-21T13:05:28;36.43;;;24.17;;
36799;SDS011;22752;51.960;5.886;2022-11-21T13:07:59;36.60;;;26.37;;
36799;SDS011;22752;51.960;5.886;2022-11-21T13:10:31;38.33;;;26.30;;
36799;SDS011;22752;51.960;5.886;2022-11-21T13:15:51;36.77;;;23.93;;
36799;SDS011;22752;51.960;5.886;2022-11-21T13:18:24;32.83;;;23.30;;
36799;SDS011;22752;51.960;5.886;2022-11-21T13:20:55;35.88;;;23.35;;
36799;SDS011;22752;51.960;5.886;2022-11-21T13:28:49;31.77;;;22.73;;
36799;SDS011;22752;51.960;5.886;2022-11-21T13:31:27;33.03;;;23.13;;
36799;SDS011;22752;51.960;5.886;2022-11-21T13:33:53;33.60;;;22.13;;
36799;SDS011;22752;51.960;5.886;2022-11-21T13:46:59;33.33;;;21.43;;
36799;SDS011;22752;51.960;5.886;2022-11-21T13:49:43;28.80;;;20.17;;
36799;SDS011;22752;51.960;5.886;2022-11-21T14:03:27;28.90;;;18.40;;
36799;SDS011;22752;51.960;5.886;2022-11-21T14:19:55;26.60;;;14.52;;
36799;SDS011;22752;51.960;5.886;2022-11-21T14:25:14;34.80;;;16.73;;
36799;SDS011;22752;51.960;5.886;2022-11-21T14:27:44;27.27;;;15.60;;
36799;SDS011;22752;51.960;5.886;2022-11-21T14:30:32;29.97;;;17.70;;
36799;SDS011;22752;51.960;5.886;2022-11-21T14:35:51;26.93;;;17.07;;
36799;SDS011;22752;51.960;5.886;2022-11-21T14:38:18;27.40;;;17.27;;
36799;SDS011;22752;51.960;5.886;2022-11-21T14:40:45;29.53;;;18.67;;
36799;SDS011;22752;51.960;5.886;2022-11-21T14:43:30;37.93;;;20.87;;
36799;SDS011;22752;51.960;5.886;2022-11-21T14:45:57;35.17;;;21.63;;
36799;SDS011;22752;51.960;5.886;2022-11-21T14:48:27;29.83;;;18.80;;
36799;SDS011;22752;51.960;5.886;2022-11-21T14:50:57;30.10;;;18.23;;
36799;SDS011;22752;51.960;5.886;2022-11-21T14:53:25;33.60;;;17.07;;
36799;SDS011;22752;51.960;5.886;2022-11-21T14:55:51;28.60;;;17.27;;
36799;SDS011;22752;51.960;5.886;2022-11-21T14:58:18;24.70;;;16.03;;
36799;SDS011;22752;51.960;5.886;2022-11-21T15:01:05;27.90;;;16.50;;
36799;SDS011;22752;51.960;5.886;2022-11-21T15:03:52;28.30;;;15.80;;
36799;SDS011;22752;51.960;5.886;2022-11-21T15:06:23;24.80;;;14.60;;
36799;SDS011;22752;51.960;5.886;2022-11-21T15:08:50;28.23;;;15.87;;
36799;SDS011;22752;51.960;5.886;2022-11-21T15:11:17;25.90;;;15.10;;
36799;SDS011;22752;51.960;5.886;2022-11-21T15:13:45;27.57;;;15.93;;
36799;SDS011;22752;51.960;5.886;2022-11-21T15:16:15;27.17;;;15.67;;
36799;SDS011;22752;51.960;5.886;2022-11-21T15:18:41;23.90;;;15.47;;
36799;SDS011;22752;51.960;5.886;2022-11-21T15:21:07;25.47;;;15.77;;
36799;SDS011;22752;51.960;5.886;2022-11-21T15:23:39;29.90;;;15.07;;
36799;SDS011;22752;51.960;5.886;2022-11-21T15:28:55;27.90;;;16.90;;
36799;SDS011;22752;51.960;5.886;2022-11-21T15:31:23;27.87;;;16.27;;
36799;SDS011;22752;51.960;5.886;2022-11-21T15:33:59;38.10;;;18.83;;
36799;SDS011;22752;51.960;5.886;2022-11-21T15:36:26;29.03;;;16.40;;
36799;SDS011;22752;51.960;5.886;2022-11-21T15:41:29;27.43;;;16.30;;
36799;SDS011;22752;51.960;5.886;2022-11-21T15:46:26;22.93;;;15.93;;
36799;SDS011;22752;51.960;5.886;2022-11-21T15:48:57;30.00;;;17.67;;
36799;SDS011;22752;51.960;5.886;2022-11-21T15:51:25;26.00;;;17.30;;
36799;SDS011;22752;51.960;5.886;2022-11-21T15:54:10;26.03;;;15.90;;
36799;SDS011;22752;51.960;5.886;2022-11-21T15:56:38;31.00;;;17.37;;
36799;SDS011;22752;51.960;5.886;2022-11-21T15:59:04;34.87;;;17.17;;
36799;SDS011;22752;51.960;5.886;2022-11-21T16:01:33;29.57;;;17.50;;
36799;SDS011;22752;51.960;5.886;2022-11-21T16:04:00;30.87;;;16.80;;
36799;SDS011;22752;51.960;5.886;2022-11-21T16:06:28;30.73;;;15.37;;
36799;SDS011;22752;51.960;5.886;2022-11-21T16:08:54;23.87;;;15.97;;
36799;SDS011;22752;51.960;5.886;2022-11-21T16:11:27;26.17;;;15.40;;
36799;SDS011;22752;51.960;5.886;2022-11-21T16:13:55;30.77;;;15.10;;
36799;SDS011;22752;51.960;5.886;2022-11-21T16:16:26;27.17;;;15.47;;
36799;SDS011;22752;51.960;5.886;2022-11-21T16:18:54;35.30;;;18.03;;
36799;SDS011;22752;51.960;5.886;2022-11-21T16:21:20;35.60;;;19.47;;
36799;SDS011;22752;51.960;5.886;2022-11-21T16:23:46;35.40;;;20.77;;
36799;SDS011;22752;51.960;5.886;2022-11-21T16:26:12;30.83;;;20.70;;
36799;SDS011;22752;51.960;5.886;2022-11-21T16:28:38;36.70;;;22.60;;
36799;SDS011;22752;51.960;5.886;2022-11-21T16:31:06;39.47;;;23.27;;
36799;SDS011;22752;51.960;5.886;2022-11-21T16:33:44;34.40;;;22.87;;
36799;SDS011;22752;51.960;5.886;2022-11-21T16:36:10;40.50;;;24.50;;
36799;SDS011;22752;51.960;5.886;2022-11-21T16:38:36;37.37;;;23.70;;
36799;SDS011;22752;51.960;5.886;2022-11-21T16:41:02;37.53;;;22.57;;
36799;SDS011;22752;51.960;5.886;2022-11-21T16:43:29;40.97;;;23.67;;
36799;SDS011;22752;51.960;5.886;2022-11-21T16:45:55;33.87;;;23.17;;
36799;SDS011;22752;51.960;5.886;2022-11-21T16:48:31;35.07;;;22.73;;
36799;SDS011;22752;51.960;5.886;2022-11-21T16:53:36;37.87;;;23.23;;
36799;SDS011;22752;51.960;5.886;2022-11-21T16:56:02;34.33;;;22.80;;
36799;SDS011;22752;51.960;5.886;2022-11-21T16:58:27;40.87;;;22.97;;
36799;SDS011;22752;51.960;5.886;2022-11-21T17:00:53;34.37;;;21.90;;
36799;SDS011;22752;51.960;5.886;2022-11-21T17:03:19;34.63;;;21.90;;
36799;SDS011;22752;51.960;5.886;2022-11-21T17:05:55;40.77;;;23.93;;
36799;SDS011;22752;51.960;5.886;2022-11-21T17:08:21;38.63;;;23.83;;
36799;SDS011;22752;51.960;5.886;2022-11-21T17:10:47;40.80;;;25.13;;
36799;SDS011;22752;51.960;5.886;2022-11-21T17:13:12;42.33;;;24.33;;
36799;SDS011;22752;51.960;5.886;2022-11-21T17:15:38;40.80;;;24.43;;
36799;SDS011;22752;51.960;5.886;2022-11-21T17:18:03;41.93;;;23.63;;
36799;SDS011;22752;51.960;5.886;2022-11-21T17:20:29;33.47;;;21.40;;
36799;SDS011;22752;51.960;5.886;2022-11-21T17:22:55;36.80;;;21.63;;
36799;SDS011;22752;51.960;5.886;2022-11-21T17:25:20;43.63;;;24.87;;
36799;SDS011;22752;51.960;5.886;2022-11-21T17:27:46;37.70;;;22.03;;
36799;SDS011;22752;51.960;5.886;2022-11-21T17:30:12;36.57;;;21.77;;
36799;SDS011;22752;51.960;5.886;2022-11-21T17:32:38;42.80;;;23.00;;
36799;SDS011;22752;51.960;5.886;2022-11-21T17:35:03;34.43;;;21.37;;
36799;SDS011;22752;51.960;5.886;2022-11-21T17:37:30;36.37;;;21.97;;
36799;SDS011;22752;51.960;5.886;2022-11-21T17:39:55;35.10;;;20.30;;
36799;SDS011;22752;51.960;5.886;2022-11-21T17:42:21;35.07;;;21.43;;
36799;SDS011;22752;51.960;5.886;2022-11-21T17:44:47;35.87;;;20.87;;
36799;SDS011;22752;51.960;5.886;2022-11-21T17:47:13;32.07;;;19.87;;
36799;SDS011;22752;51.960;5.886;2022-11-21T17:49:39;36.17;;;19.63;;
36799;SDS011;22752;51.960;5.886;2022-11-21T17:52:04;34.07;;;17.83;;
36799;SDS011;22752;51.960;5.886;2022-11-21T17:54:30;27.50;;;17.23;;